Douglas, Iowa
Current Conditions -  °F | °C
As of 9:55 AM on Friday 31 Oct 2014 (Local Time) from KDEH Reporting Station
Broken Clouds Broken Clouds  
Wind Chill: 22°   Ceiling: 2700
Heat Index: 32°   Visibility: 10mi
Dew Point: 19°   Wind: 14mph
Humidity: 60%   Direction: 10°N
Pressure: 30.42"   Gusts: 25mph
Location:  43.0026°N, 91.7836°W
Report Text: KDEH 311455Z AUTO 01012G22KT 10SM BKN027 M00/M07 A3042 RMK AO2
Loading
Personal Weather Stations






























Interactive Weather Map
Tropical Storm Tracking
New forecast layout! Learn more

10-Day Weather Forecast

Advertisements
Track Severe Weather on mobile